Latest Weather Observations for Cape Wessel

IDD60801

Issued at 6:01 am CST Thursday 22 February 2018 (issued every 30 minutes, with the page automatically refreshed every 10 minutes)

About weather observations | Map of weather stations | Latest weather observations for NT | Other Formats
Station Details ID: 200786 Name: CAPE WESSEL Lat: -11.00 Lon: 136.76 Height: 18.0 m
Data from the previous 72 hours. | See also: Recent months at Cape Wessel
Date/Time
CST
Temp
°C
App
Temp
°C
Dew
Point
°C
Rel
Hum
%
Delta-T
°C
Wind Press
QNH
hPa
Press
MSL
hPa
Rain since
9am
mm
Dir  Spd
km/h
Gust
km/h
Spd
kts
Gust
kts
22/06:00am 28.4 28.8 25.0 82 2.4 WNW 32 35 17 19 1005.4 1005.3 6.0
22/05:30am 28.4 29.7 25.2 83 2.3 WNW 28 35 15 19 1004.9 1004.8 6.0
22/05:00am 28.3 29.5 25.1 83 2.2 WNW 28 35 15 19 1004.7 1004.6 6.0
22/04:30am 28.3 29.4 24.9 82 2.4 WNW 28 33 15 18 1004.4 1004.3 6.0
22/04:00am 28.3 29.0 24.9 82 2.4 WNW 30 35 16 19 1004.4 1004.3 6.0
22/03:30am 28.6 28.9 25.2 82 2.4 WNW 33 39 18 21 1004.6 1004.5 6.0
22/03:00am 28.7 29.9 25.7 84 2.1 WNW 30 37 16 20 1005.0 1004.9 6.0
22/02:30am 28.6 29.6 25.4 83 2.3 WNW 30 35 16 19 1005.3 1005.2 6.0
22/02:00am 28.6 29.9 25.2 82 2.4 WNW 28 35 15 19 1005.5 1005.4 6.0
22/01:30am 28.7 30.2 25.5 83 2.3 WNW 28 35 15 19 1005.5 1005.4 6.0
22/01:00am 28.6 29.1 25.2 82 2.4 WNW 32 37 17 20 1005.8 1005.7 6.0
22/12:30am 28.6 29.5 25.2 82 2.4 WNW 30 35 16 19 1006.0 1005.9 6.0
22/12:00am 28.8 29.4 25.4 82 2.4 WNW 32 39 17 21 1006.4 1006.3 6.0
 
Date/Time
CST
Temp
°C
App
Temp
°C
Dew
Point
°C
Rel
Hum
%
Delta-T
°C
Wind Press
QNH
hPa
Press
MSL
hPa
Rain since
9am
mm
Dir  Spd
km/h
Gust
km/h
Spd
kts
Gust
kts
21/11:30pm 28.7 29.3 25.3 82 2.4 WNW 32 35 17 19 1006.6 1006.5 6.0
21/11:00pm 28.8 30.4 25.8 84 2.1 WNW 28 33 15 18 1006.8 1006.7 6.0
21/10:30pm 28.7 30.2 25.5 83 2.3 WNW 28 33 15 18 1006.8 1006.7 6.0
21/10:00pm 28.7 30.5 25.5 83 2.3 WNW 26 33 14 18 1006.6 1006.5 6.0
21/09:30pm 28.7 30.8 25.3 82 2.4 WNW 24 30 13 16 1006.3 1006.2 6.0
21/09:00pm 28.7 30.2 25.5 83 2.3 WNW 28 32 15 17 1005.9 1005.8 6.0
21/08:30pm 28.7 30.5 25.5 83 2.3 WNW 26 32 14 17 1005.7 1005.6 6.0
21/08:00pm 28.8 30.2 25.4 82 2.4 WNW 28 33 15 18 1005.6 1005.5 6.0
21/07:30pm 28.7 29.9 25.1 81 2.5 WNW 28 35 15 19 1005.4 1005.3 6.0
21/07:00pm 28.7 30.2 25.5 83 2.3 WNW 28 33 15 18 1004.8 1004.7 6.0
21/06:30pm 29.0 29.9 25.8 83 2.3 W 32 35 17 19 1004.4 1004.3 6.0
21/06:00pm 29.3 30.0 25.5 80 2.7 W 32 39 17 21 1004.2 1004.1 6.0
21/05:30pm 29.9 30.1 24.1 71 4.0 W 30 33 16 18 1004.1 1004.0 6.0
21/05:00pm 30.4 31.7 25.9 77 3.2 W 30 35 16 19 1004.0 1003.9 6.0
21/04:30pm 30.6 32.4 26.1 77 3.2 W 28 35 15 19 1003.8 1003.7 6.0
21/04:00pm 30.4 31.2 25.9 77 3.2 W 33 39 18 21 1004.1 1004.0 6.0
21/03:30pm 30.4 31.8 26.6 80 2.7 WNW 32 39 17 21 1004.5 1004.4 6.0
21/03:00pm 27.8 30.8 26.2 91 1.1 NW 22 32 12 17 1004.7 1004.6 6.0
21/02:30pm 27.1 26.7 24.6 86 1.7 WNW 35 46 19 25 1005.3 1005.2 1.4
21/02:00pm 31.6 33.5 26.8 75 3.5 WNW 30 37 16 20 1005.6 1005.5 0.0
21/01:30pm 32.9 34.8 26.7 70 4.5 WNW 30 37 16 20 1005.9 1005.8 0.0
21/01:00pm 33.7 35.8 26.5 66 5.2 WNW 28 33 15 18 1006.0 1005.9 0.0
21/12:30pm 32.8 35.4 26.1 68 4.8 NW 24 32 13 17 1006.5 1006.4 0.0
21/12:00pm 33.1 36.1 26.1 66 5.0 NW 22 30 12 16 1006.9 1006.8 0.0
21/11:30am 32.9 35.9 26.2 68 4.8 NW 22 28 12 15 1007.3 1007.2 0.0
21/11:00am 32.6 35.8 25.9 68 4.8 NW 20 28 11 15 1007.6 1007.5 0.0
21/10:30am 32.3 35.2 25.9 69 4.6 NNW 22 28 12 15 1007.5 1007.4 0.0
21/10:00am 32.0 35.0 25.3 67 4.7 NW 19 24 10 13 1007.7 1007.6 0.0
21/09:30am 31.9 35.0 25.7 69 4.4 NW 20 28 11 15 1008.0 1007.9 0.0
21/09:00am 31.1 34.2 25.4 71 4.0 NW 19 24 10 13 1008.0 1007.9 0.2
21/08:30am 30.3 32.6 25.1 73 3.7 NW 22 28 12 15 1007.7 1007.6 0.2
21/08:00am 29.8 32.5 25.1 76 3.3 NW 20 28 11 15 1007.4 1007.3 0.2
21/07:30am 29.0 31.5 24.8 78 2.9 NW 20 24 11 13 1007.2 1007.1 0.2
21/07:00am 28.1 30.6 24.7 82 2.4 NW 20 26 11 14 1007.0 1006.9 0.2
21/06:30am 27.9 30.4 24.7 83 2.2 NW 20 26 11 14 1007.0 1006.9 0.2
21/06:00am 27.8 30.1 24.4 82 2.4 NW 20 26 11 14 1006.8 1006.7 0.2
21/05:30am 27.9 30.7 24.9 84 2.1 NW 19 22 10 12 1006.6 1006.5 0.2
21/05:00am 28.0 30.8 25.0 84 2.1 NW 19 22 10 12 1006.4 1006.3 0.2
21/04:30am 27.9 31.1 24.9 84 2.1 NW 17 20 9 11 1006.1 1006.0 0.2
21/04:00am 28.0 30.2 24.8 83 2.2 NW 22 28 12 15 1006.1 1006.0 0.2
21/03:30am 27.8 30.3 24.8 84 2.1 NW 20 24 11 13 1005.6 1005.5 0.2
21/03:00am 27.8 30.5 24.8 84 2.1 WNW 19 22 10 12 1005.5 1005.4 0.2
21/02:30am 27.8 31.7 25.4 87 1.7 NW 15 20 8 11 1005.6 1005.5 0.2
21/02:00am 27.6 31.2 25.0 86 1.8 NW 15 19 8 10 1005.8 1005.7 0.2
21/01:30am 27.7 31.2 24.9 85 2.0 NNW 15 19 8 10 1006.1 1006.0 0.2
21/01:00am 27.9 31.7 25.3 86 1.8 NW 15 19 8 10 1006.3 1006.2 0.2
21/12:30am 28.3 31.4 25.7 86 1.8 WNW 20 24 11 13 1006.6 1006.5 0.2
21/12:00am 28.2 31.7 25.4 85 2.0 WNW 17 20 9 11 1006.7 1006.6 0.2
 
Date/Time
CST
Temp
°C
App
Temp
°C
Dew
Point
°C
Rel
Hum
%
Delta-T
°C
Wind Press
QNH
hPa
Press
MSL
hPa
Rain since
9am
mm
Dir  Spd
km/h
Gust
km/h
Spd
kts
Gust
kts
20/11:30pm 28.1 31.4 25.1 84 2.1 WNW 17 20 9 11 1007.0 1006.9 0.2
20/11:00pm 28.3 32.2 25.5 85 2.0 WNW 15 19 8 10 1007.5 1007.4 0.2
20/10:30pm 28.5 32.0 25.5 84 2.1 WNW 17 20 9 11 1007.8 1007.7 0.2
20/10:00pm 28.4 31.9 25.4 84 2.1 WNW 17 20 9 11 1007.4 1007.3 0.2
20/09:30pm 28.6 32.1 25.4 83 2.3 WNW 17 20 9 11 1007.3 1007.2 0.2
20/09:00pm 28.5 32.4 25.5 84 2.1 WNW 15 20 8 11 1007.2 1007.1 0.2
20/08:30pm 28.6 32.1 25.4 83 2.3 WNW 17 20 9 11 1007.0 1006.9 0.2
20/08:00pm 28.7 31.5 24.9 80 2.7 WNW 19 22 10 12 1006.8 1006.7 0.2
20/07:30pm 28.8 32.0 25.0 80 2.7 WNW 17 22 9 12 1006.6 1006.5 0.2
20/07:00pm 29.0 31.5 24.8 78 2.9 WNW 20 26 11 14 1006.1 1006.0 0.2
20/06:30pm 29.3 31.6 25.1 78 3.0 WNW 22 26 12 14 1005.9 1005.8 0.2
20/06:00pm 30.0 32.6 24.9 74 3.6 WNW 20 26 11 14 1005.6 1005.5 0.2
20/05:30pm 31.3 35.2 26.1 74 3.7 NW 17 22 9 12 1005.6 1005.5 0.2
20/05:00pm 31.5 35.7 26.5 75 3.6 WNW 17 20 9 11 1005.5 1005.4 0.2
20/04:30pm 30.5 33.9 26.7 80 2.7 NW 22 30 12 16 1005.8 1005.7 0.2
20/04:00pm 32.6 36.2 26.4 70 4.5 WNW 20 26 11 14 1006.4 1006.3 0.2
20/03:30pm 32.5 35.9 26.1 69 4.6 WNW 20 26 11 14 1006.6 1006.5 0.2
20/03:00pm 31.6 34.0 25.2 69 4.5 WNW 22 30 12 16 1006.8 1006.7 0.2
20/02:30pm 33.4 36.4 26.2 66 5.2 WNW 22 28 12 15 1007.3 1007.2 0.2
20/02:00pm 33.6 37.0 26.1 65 5.4 WNW 20 26 11 14 1007.6 1007.5 0.2
20/01:30pm 33.2 36.2 25.5 64 5.5 WNW 20 26 11 14 1007.9 1007.8 0.2
20/01:00pm 33.2 35.8 24.9 61 5.9 NW 20 24 11 13 1008.2 1008.1 0.2
20/12:30pm 33.1 36.2 25.4 64 5.5 WNW 19 24 10 13 1008.5 1008.4 0.2
20/12:00pm 32.7 35.5 25.2 64 5.3 NW 20 24 11 13 1008.9 1008.8 0.2
20/11:30am 32.6 35.7 25.4 66 5.1 NW 19 24 10 13 1009.1 1009.0 0.2
20/11:00am 32.6 35.2 24.9 64 5.4 WNW 20 26 11 14 1009.4 1009.3 0.2
20/10:30am 32.3 35.3 25.6 67 4.8 WNW 20 26 11 14 1009.8 1009.7 0.2
20/10:00am 31.9 34.9 25.2 67 4.7 WNW 19 26 10 14 1010.0 1009.9 0.0
20/09:30am 31.1 34.0 25.9 74 3.7 WNW 22 26 12 14 1010.2 1010.1 0.0
20/09:00am 29.7 33.2 26.3 82 2.4 WNW 20 28 11 15 1009.9 1009.8 0.2
20/08:30am 28.2 31.4 25.6 86 1.8 W 19 28 10 15 1010.0 1009.9 0.2
20/08:00am 29.5 32.2 25.0 77 3.2 WNW 20 28 11 15 1009.5 1009.4 0.2
20/07:30am 29.3 31.5 25.5 80 2.7 WNW 24 30 13 16 1009.1 1009.0 0.2
20/07:00am 28.5 30.0 24.9 81 2.5 WNW 26 32 14 17 1008.7 1008.6 0.2
20/06:30am 28.3 30.3 25.1 83 2.2 WNW 24 28 13 15 1008.8 1008.7 0.2
20/06:00am 28.2 30.1 25.0 83 2.2 WNW 24 30 13 16 1008.6 1008.5 0.2
20/05:30am 28.1 30.3 24.9 83 2.2 WNW 22 28 12 15 1008.3 1008.2 0.2
20/05:00am 28.0 30.0 24.6 82 2.4 WNW 22 26 12 14 1008.3 1008.2 0.2
20/04:30am 28.1 30.7 24.9 83 2.2 W 20 24 11 13 1008.2 1008.1 0.2
20/04:00am 28.0 30.5 24.8 83 2.2 WNW 20 24 11 13 1008.1 1008.0 0.2
20/03:30am 27.9 30.0 24.7 83 2.2 WNW 22 28 12 15 1008.1 1008.0 0.2
20/03:00am 27.9 29.9 24.5 82 2.4 WNW 22 26 12 14 1008.1 1008.0 0.2
20/02:30am 27.9 30.2 24.5 82 2.4 WNW 20 26 11 14 1008.2 1008.1 0.2
20/02:00am 27.9 30.4 24.5 82 2.4 WNW 19 24 10 13 1008.5 1008.4 0.2
20/01:30am 28.0 30.5 24.8 83 2.2 WNW 20 26 11 14 1008.8 1008.7 0.2
20/01:00am 28.1 30.2 24.7 82 2.4 WNW 22 26 12 14 1009.2 1009.1 0.2
20/12:30am 28.1 30.7 24.9 83 2.2 WNW 20 26 11 14 1009.8 1009.7 0.2
20/12:00am 28.2 30.4 24.8 82 2.4 WNW 22 28 12 15 1009.8 1009.7 0.2
 
Date/Time
CST
Temp
°C
App
Temp
°C
Dew
Point
°C
Rel
Hum
%
Delta-T
°C
Wind Press
QNH
hPa
Press
MSL
hPa
Rain since
9am
mm
Dir  Spd
km/h
Gust
km/h
Spd
kts
Gust
kts
19/11:30pm 28.1 29.8 24.1 79 2.8 WNW 22 28 12 15 1009.8 1009.7 0.2
19/11:00pm 28.3 30.4 24.7 81 2.5 WNW 22 28 12 15 1009.9 1009.8 0.2
19/10:30pm 28.2 30.7 24.8 82 2.4 WNW 20 26 11 14 1009.6 1009.5 0.2
19/10:00pm 28.3 30.5 24.9 82 2.4 WNW 22 28 12 15 1009.5 1009.4 0.2
19/09:30pm 28.3 30.6 25.1 83 2.2 WNW 22 28 12 15 1009.0 1008.9 0.2
19/09:00pm 28.0 30.2 24.8 83 2.2 NW 22 26 12 14 1008.6 1008.5 0.2
19/08:30pm 28.1 30.7 24.9 83 2.2 WNW 20 26 11 14 1008.3 1008.2 0.2
19/08:00pm 28.1 31.4 25.1 84 2.1 NW 17 24 9 13 1007.6 1007.5 0.2
19/07:30pm 28.0 31.2 25.0 84 2.1 WNW 17 20 9 11 1007.3 1007.2 0.2
19/07:00pm 28.2 31.3 24.8 82 2.4 WNW 17 20 9 11 1006.9 1006.8 0.2
19/06:30pm 28.9 32.6 25.1 80 2.7 WNW 15 19 8 10 1006.4 1006.3 0.2
19/06:00pm 29.9 34.1 25.4 77 3.2 WNW 13 17 7 9 1006.2 1006.1 0.2
19/05:30pm 30.8 35.2 25.6 74 3.7 NW 13 17 7 9 1006.1 1006.0 0.2
19/05:00pm 31.1 35.2 25.7 73 3.8 WNW 15 19 8 10 1006.2 1006.1 0.2
19/04:30pm 31.4 35.1 25.7 71 4.1 WNW 17 22 9 12 1006.3 1006.2 0.2
19/04:00pm 31.8 35.4 26.1 72 4.1 WNW 19 22 10 12 1006.4 1006.3 0.2
19/03:30pm 32.1 35.3 25.9 70 4.4 WNW 20 24 11 13 1006.9 1006.8 0.2
19/03:00pm 32.2 35.0 25.0 65 5.1 WNW 19 24 10 13 1007.2 1007.1 0.2
19/02:30pm 32.3 34.6 25.6 67 4.8 WNW 24 30 13 16 1007.6 1007.5 0.2
19/02:00pm 32.2 34.9 25.0 65 5.1 WNW 20 28 11 15 1008.0 1007.9 0.2
19/01:30pm 32.2 36.0 26.7 72 4.0 WNW 20 26 11 14 1008.2 1008.1 0.2
19/01:00pm 32.3 35.3 25.6 67 4.8 WNW 20 28 11 15 1008.7 1008.6 0.2
19/12:30pm 32.2 35.7 26.3 71 4.2 NW 20 26 11 14 1009.1 1009.0 0.2
19/12:00pm 31.6 33.7 25.9 72 4.1 NW 26 32 14 17 1009.6 1009.5 0.2
19/11:30am 32.3 36.0 27.1 74 3.8 NW 22 28 12 15 1009.8 1009.7 0.2
19/11:00am 31.7 35.3 26.5 74 3.7 WNW 20 26 11 14 1010.2 1010.1 0.2
19/10:30am 30.9 33.6 26.8 79 3.0 NW 26 32 14 17 1010.6 1010.5 0.2
19/10:00am 30.2 33.4 25.9 78 3.1 NNW 20 28 11 15 1010.9 1010.8 0.2
19/09:30am 29.6 33.4 26.8 85 2.0 NNW 20 28 11 15 1010.9 1010.8 0.2
19/09:00am 29.4 33.4 26.2 83 2.3 WNW 17 24 9 13 1010.9 1010.8 4.2
19/08:30am 28.9 32.8 26.1 85 2.0 WNW 17 19 9 10 1011.0 1010.9 4.2
19/08:00am 27.7 31.6 24.9 85 2.0 W 13 17 7 9 1010.8 1010.7 4.2
19/07:30am 26.6 31.2 25.4 93 0.8 WSW 11 17 6 9 1010.3 1010.2 4.2
19/07:00am 25.9 26.2 23.6 87 1.6 W 28 35 15 19 1010.1 1010.0 3.2
19/06:56am 26.7 27.5 24.5 88 1.5 W 28 35 15 19 1010.2 1010.1 1.6
19/06:30am 28.1 33.4 25.9 88 1.6 NW 9 13 5 7 1010.0 1009.9 0.0

Other Formats:

Comma delimited format used in spreadsheet applications
http://www.bom.gov.au/fwo/IDD60801/IDD60801.94147.axf

JavaScript Object Notation format (JSON) in row-major order
http://www.bom.gov.au/fwo/IDD60801/IDD60801.94147.json